sensor_id;sensor_type;location;lat;lon;timestamp;pressure;altitude;pressure_sealevel;temperature;humidity
10474;BME280;5284;50.446;7.904;2022-11-13T00:02:45;99565.91;;;4.57;100.00
10474;BME280;5284;50.446;7.904;2022-11-13T00:08:09;99559.94;;;4.53;100.00
10474;BME280;5284;50.446;7.904;2022-11-13T00:13:31;99557.81;;;4.42;100.00
10474;BME280;5284;50.446;7.904;2022-11-13T00:18:53;99560.44;;;4.42;100.00
10474;BME280;5284;50.446;7.904;2022-11-13T00:24:16;99562.44;;;4.37;100.00
10474;BME280;5284;50.446;7.904;2022-11-13T00:29:37;99558.31;;;4.31;100.00
10474;BME280;5284;50.446;7.904;2022-11-13T00:34:59;99561.28;;;4.24;100.00
10474;BME280;5284;50.446;7.904;2022-11-13T00:40:22;99543.06;;;4.18;100.00
10474;BME280;5284;50.446;7.904;2022-11-13T00:45:44;99538.31;;;4.06;100.00
10474;BME280;5284;50.446;7.904;2022-11-13T00:51:06;99536.81;;;4.00;100.00
10474;BME280;5284;50.446;7.904;2022-11-13T00:56:28;99530.66;;;4.00;100.00
10474;BME280;5284;50.446;7.904;2022-11-13T01:01:50;99539.50;;;3.99;100.00
10474;BME280;5284;50.446;7.904;2022-11-13T01:07:11;99532.78;;;3.92;100.00
10474;BME280;5284;50.446;7.904;2022-11-13T01:12:34;99525.03;;;3.87;100.00
10474;BME280;5284;50.446;7.904;2022-11-13T01:17:56;99525.13;;;3.86;100.00
10474;BME280;5284;50.446;7.904;2022-11-13T01:23:17;99524.47;;;3.81;100.00
10474;BME280;5284;50.446;7.904;2022-11-13T01:28:41;99521.34;;;3.71;100.00
10474;BME280;5284;50.446;7.904;2022-11-13T01:34:03;99517.84;;;3.71;100.00
10474;BME280;5284;50.446;7.904;2022-11-13T01:39:25;99525.69;;;3.72;100.00
10474;BME280;5284;50.446;7.904;2022-11-13T01:44:50;99515.47;;;3.65;100.00
10474;BME280;5284;50.446;7.904;2022-11-13T01:50:13;99514.41;;;3.69;100.00
10474;BME280;5284;50.446;7.904;2022-11-13T01:55:35;99512.81;;;3.65;100.00
10474;BME280;5284;50.446;7.904;2022-11-13T02:00:58;99505.13;;;3.60;100.00
10474;BME280;5284;50.446;7.904;2022-11-13T02:06:19;99499.72;;;3.63;100.00
10474;BME280;5284;50.446;7.904;2022-11-13T02:11:42;99507.63;;;3.63;100.00
10474;BME280;5284;50.446;7.904;2022-11-13T02:17:07;99500.66;;;3.62;100.00
10474;BME280;5284;50.446;7.904;2022-11-13T02:22:35;99480.53;;;3.60;100.00
10474;BME280;5284;50.446;7.904;2022-11-13T02:28:00;99471.16;;;3.53;100.00
10474;BME280;5284;50.446;7.904;2022-11-13T02:33:24;99480.97;;;3.49;100.00
10474;BME280;5284;50.446;7.904;2022-11-13T02:38:46;99470.88;;;3.39;100.00
10474;BME280;5284;50.446;7.904;2022-11-13T02:44:10;99465.94;;;3.31;100.00
10474;BME280;5284;50.446;7.904;2022-11-13T02:49:32;99457.38;;;3.26;100.00
10474;BME280;5284;50.446;7.904;2022-11-13T02:54:54;99456.69;;;3.21;100.00
10474;BME280;5284;50.446;7.904;2022-11-13T03:00:17;99461.50;;;3.12;100.00
10474;BME280;5284;50.446;7.904;2022-11-13T03:05:39;99459.06;;;3.06;100.00
10474;BME280;5284;50.446;7.904;2022-11-13T03:11:06;99451.28;;;3.03;100.00
10474;BME280;5284;50.446;7.904;2022-11-13T03:16:29;99455.72;;;3.02;100.00
10474;BME280;5284;50.446;7.904;2022-11-13T03:21:50;99455.22;;;2.93;100.00
10474;BME280;5284;50.446;7.904;2022-11-13T03:27:12;99449.16;;;2.91;100.00
10474;BME280;5284;50.446;7.904;2022-11-13T03:32:35;99445.69;;;2.91;100.00
10474;BME280;5284;50.446;7.904;2022-11-13T03:37:56;99451.56;;;2.97;100.00
10474;BME280;5284;50.446;7.904;2022-11-13T03:43:18;99442.97;;;2.92;100.00
10474;BME280;5284;50.446;7.904;2022-11-13T03:48:41;99435.59;;;2.80;100.00
10474;BME280;5284;50.446;7.904;2022-11-13T03:54:03;99430.84;;;2.88;100.00
10474;BME280;5284;50.446;7.904;2022-11-13T03:59:24;99424.53;;;2.92;100.00
10474;BME280;5284;50.446;7.904;2022-11-13T04:04:47;99419.03;;;2.98;100.00
10474;BME280;5284;50.446;7.904;2022-11-13T04:10:09;99425.28;;;2.96;100.00
10474;BME280;5284;50.446;7.904;2022-11-13T04:15:30;99427.13;;;2.94;100.00
10474;BME280;5284;50.446;7.904;2022-11-13T04:20:58;99428.75;;;2.96;100.00
10474;BME280;5284;50.446;7.904;2022-11-13T04:26:20;99424.03;;;3.04;100.00
10474;BME280;5284;50.446;7.904;2022-11-13T04:31:42;99419.69;;;3.03;100.00
10474;BME280;5284;50.446;7.904;2022-11-13T04:37:05;99407.66;;;2.97;100.00
10474;BME280;5284;50.446;7.904;2022-11-13T04:42:27;99401.84;;;2.90;100.00
10474;BME280;5284;50.446;7.904;2022-11-13T04:48:06;99391.00;;;2.76;100.00
10474;BME280;5284;50.446;7.904;2022-11-13T04:53:29;99387.44;;;2.77;100.00
10474;BME280;5284;50.446;7.904;2022-11-13T04:58:51;99384.81;;;2.77;100.00
10474;BME280;5284;50.446;7.904;2022-11-13T05:04:14;99379.97;;;2.66;100.00
10474;BME280;5284;50.446;7.904;2022-11-13T05:09:37;99368.16;;;2.76;100.00
10474;BME280;5284;50.446;7.904;2022-11-13T05:14:58;99373.44;;;2.76;100.00
10474;BME280;5284;50.446;7.904;2022-11-13T05:20:21;99358.91;;;2.66;100.00
10474;BME280;5284;50.446;7.904;2022-11-13T05:25:44;99348.31;;;2.68;100.00
10474;BME280;5284;50.446;7.904;2022-11-13T05:31:07;99346.63;;;2.67;100.00
10474;BME280;5284;50.446;7.904;2022-11-13T05:36:29;99342.75;;;2.75;100.00
10474;BME280;5284;50.446;7.904;2022-11-13T05:41:52;99339.75;;;2.63;100.00
10474;BME280;5284;50.446;7.904;2022-11-13T05:47:13;99336.38;;;2.59;100.00
10474;BME280;5284;50.446;7.904;2022-11-13T05:52:35;99327.44;;;2.63;100.00
10474;BME280;5284;50.446;7.904;2022-11-13T05:57:59;99334.41;;;2.64;100.00
10474;BME280;5284;50.446;7.904;2022-11-13T06:03:20;99329.28;;;2.61;100.00
10474;BME280;5284;50.446;7.904;2022-11-13T06:08:42;99332.03;;;2.58;100.00
10474;BME280;5284;50.446;7.904;2022-11-13T06:14:05;99325.44;;;2.48;100.00
10474;BME280;5284;50.446;7.904;2022-11-13T06:19:27;99320.84;;;2.53;100.00
10474;BME280;5284;50.446;7.904;2022-11-13T06:24:48;99312.28;;;2.48;100.00
10474;BME280;5284;50.446;7.904;2022-11-13T06:30:13;99306.56;;;2.37;100.00
10474;BME280;5284;50.446;7.904;2022-11-13T06:35:34;99308.41;;;2.35;100.00
10474;BME280;5284;50.446;7.904;2022-11-13T06:40:56;99308.25;;;2.40;100.00
10474;BME280;5284;50.446;7.904;2022-11-13T06:46:21;99302.81;;;2.44;100.00
10474;BME280;5284;50.446;7.904;2022-11-13T06:51:42;99293.50;;;2.36;100.00
10474;BME280;5284;50.446;7.904;2022-11-13T06:57:04;99294.00;;;2.45;100.00
10474;BME280;5284;50.446;7.904;2022-11-13T07:02:27;99288.59;;;2.48;100.00
10474;BME280;5284;50.446;7.904;2022-11-13T07:07:48;99291.09;;;2.51;100.00
10474;BME280;5284;50.446;7.904;2022-11-13T07:13:10;99292.28;;;2.64;100.00
10474;BME280;5284;50.446;7.904;2022-11-13T07:18:33;99294.00;;;2.65;100.00
10474;BME280;5284;50.446;7.904;2022-11-13T07:23:55;99277.78;;;2.76;100.00
10474;BME280;5284;50.446;7.904;2022-11-13T07:29:16;99277.97;;;2.91;100.00
10474;BME280;5284;50.446;7.904;2022-11-13T07:34:39;99269.66;;;3.20;100.00
10474;BME280;5284;50.446;7.904;2022-11-13T07:40:01;99271.09;;;3.47;100.00
10474;BME280;5284;50.446;7.904;2022-11-13T07:45:23;99272.72;;;3.68;100.00
10474;BME280;5284;50.446;7.904;2022-11-13T07:50:46;99256.91;;;3.86;100.00
10474;BME280;5284;50.446;7.904;2022-11-13T07:56:07;99255.84;;;4.09;100.00
10474;BME280;5284;50.446;7.904;2022-11-13T08:01:29;99252.94;;;4.32;100.00
10474;BME280;5284;50.446;7.904;2022-11-13T08:06:52;99245.75;;;4.52;100.00
10474;BME280;5284;50.446;7.904;2022-11-13T08:12:14;99247.22;;;4.74;100.00
10474;BME280;5284;50.446;7.904;2022-11-13T08:17:35;99246.25;;;4.94;100.00
10474;BME280;5284;50.446;7.904;2022-11-13T08:22:59;99239.16;;;5.11;100.00
10474;BME280;5284;50.446;7.904;2022-11-13T08:28:20;99241.59;;;5.31;100.00
10474;BME280;5284;50.446;7.904;2022-11-13T08:33:42;99241.97;;;5.24;100.00
10474;BME280;5284;50.446;7.904;2022-11-13T08:39:07;99246.53;;;5.37;100.00
10474;BME280;5284;50.446;7.904;2022-11-13T08:44:28;99247.56;;;5.35;100.00
10474;BME280;5284;50.446;7.904;2022-11-13T08:49:50;99244.31;;;5.62;100.00
10474;BME280;5284;50.446;7.904;2022-11-13T08:55:13;99244.03;;;5.84;100.00
10474;BME280;5284;50.446;7.904;2022-11-13T09:00:35;99243.25;;;5.97;100.00
10474;BME280;5284;50.446;7.904;2022-11-13T09:05:57;99233.38;;;6.16;100.00
10474;BME280;5284;50.446;7.904;2022-11-13T09:11:20;99233.53;;;5.98;100.00
10474;BME280;5284;50.446;7.904;2022-11-13T09:16:42;99224.94;;;6.39;100.00
10474;BME280;5284;50.446;7.904;2022-11-13T09:22:04;99217.88;;;6.69;100.00
10474;BME280;5284;50.446;7.904;2022-11-13T09:27:26;99207.16;;;6.86;100.00
10474;BME280;5284;50.446;7.904;2022-11-13T09:32:52;99204.53;;;7.14;100.00
10474;BME280;5284;50.446;7.904;2022-11-13T09:38:14;99196.31;;;7.46;100.00
10474;BME280;5284;50.446;7.904;2022-11-13T09:43:40;99185.88;;;7.71;100.00
10474;BME280;5284;50.446;7.904;2022-11-13T09:49:11;99184.34;;;8.07;100.00
10474;BME280;5284;50.446;7.904;2022-11-13T09:54:34;99168.47;;;8.34;100.00
10474;BME280;5284;50.446;7.904;2022-11-13T10:00:00;99170.09;;;8.49;100.00
10474;BME280;5284;50.446;7.904;2022-11-13T10:05:30;99161.44;;;8.84;100.00
10474;BME280;5284;50.446;7.904;2022-11-13T10:11:00;99160.72;;;9.19;100.00
10474;BME280;5284;50.446;7.904;2022-11-13T10:16:29;99144.63;;;9.33;100.00
10474;BME280;5284;50.446;7.904;2022-11-13T10:21:56;99146.81;;;9.64;100.00
10474;BME280;5284;50.446;7.904;2022-11-13T10:27:38;99131.44;;;10.16;100.00
10474;BME280;5284;50.446;7.904;2022-11-13T10:33:04;99127.56;;;10.44;100.00
10474;BME280;5284;50.446;7.904;2022-11-13T10:38:29;99121.75;;;10.73;100.00
10474;BME280;5284;50.446;7.904;2022-11-13T10:44:01;99104.34;;;11.24;100.00
10474;BME280;5284;50.446;7.904;2022-11-13T10:49:26;99097.78;;;11.39;100.00
10474;BME280;5284;50.446;7.904;2022-11-13T10:54:49;99092.06;;;11.87;100.00
10474;BME280;5284;50.446;7.904;2022-11-13T11:00:19;99092.56;;;12.23;99.67
10474;BME280;5284;50.446;7.904;2022-11-13T11:05:55;99090.53;;;12.68;94.35
10474;BME280;5284;50.446;7.904;2022-11-13T11:11:17;99079.38;;;12.83;87.81
10474;BME280;5284;50.446;7.904;2022-11-13T11:16:53;99065.69;;;13.27;85.54
10474;BME280;5284;50.446;7.904;2022-11-13T11:22:21;99056.97;;;13.65;80.76
10474;BME280;5284;50.446;7.904;2022-11-13T11:27:47;99045.31;;;14.03;75.13
10474;BME280;5284;50.446;7.904;2022-11-13T11:33:14;99036.03;;;14.45;73.14
10474;BME280;5284;50.446;7.904;2022-11-13T11:38:44;99023.25;;;14.95;73.49
10474;BME280;5284;50.446;7.904;2022-11-13T11:44:14;99009.84;;;15.22;69.70
10474;BME280;5284;50.446;7.904;2022-11-13T11:49:39;99005.63;;;15.19;67.37
10474;BME280;5284;50.446;7.904;2022-11-13T11:55:13;98993.16;;;15.18;66.71
10474;BME280;5284;50.446;7.904;2022-11-13T12:00:43;98969.38;;;15.23;67.13
10474;BME280;5284;50.446;7.904;2022-11-13T12:06:17;98970.16;;;16.22;66.80
10474;BME280;5284;50.446;7.904;2022-11-13T12:11:51;98962.25;;;16.38;66.39
10474;BME280;5284;50.446;7.904;2022-11-13T12:17:24;98961.63;;;15.74;67.99
10474;BME280;5284;50.446;7.904;2022-11-13T12:22:57;98967.88;;;15.47;66.96
10474;BME280;5284;50.446;7.904;2022-11-13T12:28:30;98952.44;;;15.23;67.67
10474;BME280;5284;50.446;7.904;2022-11-13T12:34:03;98936.72;;;14.55;69.92
10474;BME280;5284;50.446;7.904;2022-11-13T12:39:34;98929.47;;;14.19;73.84
10474;BME280;5284;50.446;7.904;2022-11-13T12:45:04;98916.88;;;14.00;77.07
10474;BME280;5284;50.446;7.904;2022-11-13T12:50:29;98909.94;;;14.07;79.00
10474;BME280;5284;50.446;7.904;2022-11-13T12:55:57;98899.69;;;13.84;82.87
10474;BME280;5284;50.446;7.904;2022-11-13T13:01:22;98891.50;;;13.67;85.09
10474;BME280;5284;50.446;7.904;2022-11-13T13:06:53;98881.31;;;13.61;86.20
10474;BME280;5284;50.446;7.904;2022-11-13T13:12:36;98875.53;;;13.65;84.63
10474;BME280;5284;50.446;7.904;2022-11-13T13:18:09;98877.09;;;13.49;84.26
10474;BME280;5284;50.446;7.904;2022-11-13T13:23:32;98871.03;;;13.47;79.89
10474;BME280;5284;50.446;7.904;2022-11-13T13:29:07;98868.63;;;13.44;72.42
10474;BME280;5284;50.446;7.904;2022-11-13T13:34:42;98861.44;;;13.35;68.63
10474;BME280;5284;50.446;7.904;2022-11-13T13:40:14;98856.47;;;13.30;72.43
10474;BME280;5284;50.446;7.904;2022-11-13T13:45:46;98840.69;;;13.18;76.59
10474;BME280;5284;50.446;7.904;2022-11-13T13:51:17;98839.25;;;13.14;77.88
10474;BME280;5284;50.446;7.904;2022-11-13T13:56:41;98835.31;;;12.99;78.00
10474;BME280;5284;50.446;7.904;2022-11-13T14:02:12;98831.00;;;12.87;78.75
10474;BME280;5284;50.446;7.904;2022-11-13T14:07:44;98833.94;;;12.74;81.45
10474;BME280;5284;50.446;7.904;2022-11-13T14:13:10;98831.81;;;12.68;78.47
10474;BME280;5284;50.446;7.904;2022-11-13T14:18:33;98816.56;;;12.59;77.85
10474;BME280;5284;50.446;7.904;2022-11-13T14:23:56;98808.34;;;12.42;77.34
10474;BME280;5284;50.446;7.904;2022-11-13T14:29:31;98806.06;;;12.28;78.74
10474;BME280;5284;50.446;7.904;2022-11-13T14:34:57;98792.91;;;12.16;80.36
10474;BME280;5284;50.446;7.904;2022-11-13T14:40:22;98792.25;;;12.03;81.91
10474;BME280;5284;50.446;7.904;2022-11-13T14:45:52;98773.97;;;11.98;82.42
10474;BME280;5284;50.446;7.904;2022-11-13T14:51:21;98780.88;;;11.80;86.74
10474;BME280;5284;50.446;7.904;2022-11-13T14:56:45;98771.72;;;11.73;86.54
10474;BME280;5284;50.446;7.904;2022-11-13T15:02:09;98762.34;;;11.58;88.87
10474;BME280;5284;50.446;7.904;2022-11-13T15:07:33;98757.91;;;11.48;87.56
10474;BME280;5284;50.446;7.904;2022-11-13T15:13:03;98752.47;;;11.38;88.72
10474;BME280;5284;50.446;7.904;2022-11-13T15:18:25;98751.75;;;11.16;90.16
10474;BME280;5284;50.446;7.904;2022-11-13T15:23:47;98742.28;;;10.91;92.61
10474;BME280;5284;50.446;7.904;2022-11-13T15:29:10;98737.28;;;10.66;94.29
10474;BME280;5284;50.446;7.904;2022-11-13T15:34:31;98740.00;;;10.45;95.87
10474;BME280;5284;50.446;7.904;2022-11-13T15:39:53;98729.50;;;10.21;97.55
10474;BME280;5284;50.446;7.904;2022-11-13T15:45:16;98725.03;;;9.89;99.76
10474;BME280;5284;50.446;7.904;2022-11-13T15:50:38;98722.81;;;9.50;100.00
10474;BME280;5284;50.446;7.904;2022-11-13T15:55:59;98716.84;;;9.24;100.00
10474;BME280;5284;50.446;7.904;2022-11-13T16:01:26;98719.00;;;9.08;100.00
10474;BME280;5284;50.446;7.904;2022-11-13T16:06:48;98725.94;;;8.88;100.00
10474;BME280;5284;50.446;7.904;2022-11-13T16:12:10;98715.81;;;8.58;100.00
10474;BME280;5284;50.446;7.904;2022-11-13T16:17:39;98707.44;;;8.28;100.00
10474;BME280;5284;50.446;7.904;2022-11-13T16:23:01;98714.91;;;8.11;100.00
10474;BME280;5284;50.446;7.904;2022-11-13T16:28:23;98707.63;;;7.89;100.00
10474;BME280;5284;50.446;7.904;2022-11-13T16:33:46;98702.44;;;7.75;100.00
10474;BME280;5284;50.446;7.904;2022-11-13T16:39:10;98701.91;;;7.70;100.00
10474;BME280;5284;50.446;7.904;2022-11-13T16:44:34;98703.63;;;7.59;100.00
10474;BME280;5284;50.446;7.904;2022-11-13T16:49:59;98704.28;;;7.50;100.00
10474;BME280;5284;50.446;7.904;2022-11-13T16:55:21;98696.63;;;7.46;100.00
10474;BME280;5284;50.446;7.904;2022-11-13T17:00:43;98706.19;;;7.36;100.00
10474;BME280;5284;50.446;7.904;2022-11-13T17:06:14;98704.50;;;7.22;100.00
10474;BME280;5284;50.446;7.904;2022-11-13T17:11:39;98710.13;;;7.05;100.00
10474;BME280;5284;50.446;7.904;2022-11-13T17:17:01;98708.19;;;6.82;100.00
10474;BME280;5284;50.446;7.904;2022-11-13T17:22:24;98699.78;;;6.76;100.00
10474;BME280;5284;50.446;7.904;2022-11-13T17:27:46;98700.94;;;6.72;100.00
10474;BME280;5284;50.446;7.904;2022-11-13T17:33:09;98697.75;;;6.67;100.00
10474;BME280;5284;50.446;7.904;2022-11-13T17:38:32;98695.09;;;6.67;100.00
10474;BME280;5284;50.446;7.904;2022-11-13T17:43:53;98689.94;;;6.65;100.00
10474;BME280;5284;50.446;7.904;2022-11-13T17:49:21;98689.28;;;6.62;100.00
10474;BME280;5284;50.446;7.904;2022-11-13T17:54:45;98691.69;;;6.52;100.00
10474;BME280;5284;50.446;7.904;2022-11-13T18:00:08;98683.59;;;6.41;100.00
10474;BME280;5284;50.446;7.904;2022-11-13T18:05:31;98682.00;;;6.39;100.00
10474;BME280;5284;50.446;7.904;2022-11-13T18:11:06;98679.47;;;6.37;100.00
10474;BME280;5284;50.446;7.904;2022-11-13T18:16:31;98680.25;;;6.25;100.00
10474;BME280;5284;50.446;7.904;2022-11-13T18:21:53;98667.75;;;6.15;100.00
10474;BME280;5284;50.446;7.904;2022-11-13T18:27:16;98660.19;;;6.09;100.00
10474;BME280;5284;50.446;7.904;2022-11-13T18:32:38;98659.84;;;6.01;100.00
10474;BME280;5284;50.446;7.904;2022-11-13T18:38:01;98662.41;;;5.89;100.00
10474;BME280;5284;50.446;7.904;2022-11-13T18:43:24;98667.16;;;5.70;100.00
10474;BME280;5284;50.446;7.904;2022-11-13T18:48:46;98661.53;;;5.48;100.00
10474;BME280;5284;50.446;7.904;2022-11-13T18:54:09;98657.78;;;5.38;100.00
10474;BME280;5284;50.446;7.904;2022-11-13T18:59:33;98660.31;;;5.25;100.00
10474;BME280;5284;50.446;7.904;2022-11-13T19:04:56;98649.47;;;5.16;100.00
10474;BME280;5284;50.446;7.904;2022-11-13T19:10:17;98645.88;;;5.03;100.00
10474;BME280;5284;50.446;7.904;2022-11-13T19:15:41;98639.81;;;4.87;100.00
10474;BME280;5284;50.446;7.904;2022-11-13T19:21:05;98627.28;;;4.76;100.00
10474;BME280;5284;50.446;7.904;2022-11-13T19:26:27;98624.63;;;4.62;100.00
10474;BME280;5284;50.446;7.904;2022-11-13T19:31:51;98620.19;;;4.63;100.00
10474;BME280;5284;50.446;7.904;2022-11-13T19:37:14;98618.19;;;4.52;100.00
10474;BME280;5284;50.446;7.904;2022-11-13T19:42:38;98619.22;;;4.50;100.00
10474;BME280;5284;50.446;7.904;2022-11-13T19:48:02;98612.69;;;4.42;100.00
10474;BME280;5284;50.446;7.904;2022-11-13T19:53:24;98600.41;;;4.41;100.00
10474;BME280;5284;50.446;7.904;2022-11-13T19:58:46;98597.84;;;4.25;100.00
10474;BME280;5284;50.446;7.904;2022-11-13T20:04:11;98586.25;;;4.28;100.00
10474;BME280;5284;50.446;7.904;2022-11-13T20:09:33;98583.56;;;4.29;100.00
10474;BME280;5284;50.446;7.904;2022-11-13T20:14:55;98580.81;;;4.31;100.00
10474;BME280;5284;50.446;7.904;2022-11-13T20:20:18;98579.47;;;4.24;100.00
10474;BME280;5284;50.446;7.904;2022-11-13T20:25:41;98567.28;;;4.21;100.00
10474;BME280;5284;50.446;7.904;2022-11-13T20:31:05;98575.94;;;4.09;100.00
10474;BME280;5284;50.446;7.904;2022-11-13T20:36:28;98571.78;;;4.05;100.00
10474;BME280;5284;50.446;7.904;2022-11-13T20:41:49;98570.09;;;4.04;100.00
10474;BME280;5284;50.446;7.904;2022-11-13T20:47:11;98576.38;;;4.02;100.00
10474;BME280;5284;50.446;7.904;2022-11-13T20:52:34;98577.00;;;3.91;100.00
10474;BME280;5284;50.446;7.904;2022-11-13T20:57:55;98573.59;;;3.89;100.00
10474;BME280;5284;50.446;7.904;2022-11-13T21:03:17;98569.00;;;3.93;100.00
10474;BME280;5284;50.446;7.904;2022-11-13T21:08:40;98565.97;;;3.85;100.00
10474;BME280;5284;50.446;7.904;2022-11-13T21:14:03;98557.56;;;3.78;100.00
10474;BME280;5284;50.446;7.904;2022-11-13T21:19:26;98554.94;;;3.78;100.00
10474;BME280;5284;50.446;7.904;2022-11-13T21:24:49;98555.97;;;3.76;100.00
10474;BME280;5284;50.446;7.904;2022-11-13T21:30:11;98551.47;;;3.78;100.00
10474;BME280;5284;50.446;7.904;2022-11-13T21:35:33;98548.31;;;3.71;100.00
10474;BME280;5284;50.446;7.904;2022-11-13T21:40:58;98547.56;;;3.69;100.00
10474;BME280;5284;50.446;7.904;2022-11-13T21:46:39;98540.94;;;3.62;100.00
10474;BME280;5284;50.446;7.904;2022-11-13T21:52:03;98537.97;;;3.53;100.00
10474;BME280;5284;50.446;7.904;2022-11-13T21:57:26;98541.19;;;3.58;100.00
10474;BME280;5284;50.446;7.904;2022-11-13T22:02:48;98546.47;;;3.58;100.00
10474;BME280;5284;50.446;7.904;2022-11-13T22:08:10;98535.25;;;3.54;100.00
10474;BME280;5284;50.446;7.904;2022-11-13T22:13:34;98532.72;;;3.53;100.00
10474;BME280;5284;50.446;7.904;2022-11-13T22:18:58;98520.13;;;3.42;100.00
10474;BME280;5284;50.446;7.904;2022-11-13T22:24:20;98507.97;;;3.40;100.00
10474;BME280;5284;50.446;7.904;2022-11-13T22:29:44;98500.41;;;3.34;100.00
10474;BME280;5284;50.446;7.904;2022-11-13T22:35:06;98490.34;;;3.26;100.00
10474;BME280;5284;50.446;7.904;2022-11-13T22:40:28;98487.78;;;3.25;100.00
10474;BME280;5284;50.446;7.904;2022-11-13T22:45:51;98480.56;;;3.28;100.00
10474;BME280;5284;50.446;7.904;2022-11-13T22:51:13;98476.16;;;3.13;100.00
10474;BME280;5284;50.446;7.904;2022-11-13T22:56:36;98482.53;;;3.09;100.00
10474;BME280;5284;50.446;7.904;2022-11-13T23:02:00;98477.19;;;3.11;100.00
10474;BME280;5284;50.446;7.904;2022-11-13T23:07:21;98475.31;;;3.13;100.00
10474;BME280;5284;50.446;7.904;2022-11-13T23:12:43;98477.44;;;3.06;100.00
10474;BME280;5284;50.446;7.904;2022-11-13T23:18:06;98477.25;;;3.09;100.00
10474;BME280;5284;50.446;7.904;2022-11-13T23:23:29;98469.94;;;3.14;100.00
10474;BME280;5284;50.446;7.904;2022-11-13T23:28:51;98466.28;;;3.17;100.00
10474;BME280;5284;50.446;7.904;2022-11-13T23:34:15;98451.50;;;3.14;100.00
10474;BME280;5284;50.446;7.904;2022-11-13T23:39:57;98443.00;;;3.09;100.00
10474;BME280;5284;50.446;7.904;2022-11-13T23:45:18;98441.13;;;3.11;100.00
10474;BME280;5284;50.446;7.904;2022-11-13T23:50:42;98434.88;;;3.14;100.00
10474;BME280;5284;50.446;7.904;2022-11-13T23:56:04;98435.81;;;3.13;100.00
